createdAt,value
2022-12-31T00:01:27.215Z,98384.19
2022-12-31T00:03:54.868Z,98380.19
2022-12-31T00:06:30.280Z,98377.84
2022-12-31T00:08:58.942Z,98373.47
2022-12-31T00:11:26.826Z,98380.28
2022-12-31T00:13:54.234Z,98377.56
2022-12-31T00:16:26.556Z,98382.56
2022-12-31T00:18:55.963Z,98372.25
2022-12-31T00:21:22.793Z,98376.91
2022-12-31T00:23:49.489Z,98372.06
2022-12-31T00:26:21.493Z,98387.06
2022-12-31T00:28:48.956Z,98381.44
2022-12-31T00:31:21.368Z,98385.75
2022-12-31T00:33:48.028Z,98396.44
2022-12-31T00:36:17.066Z,98398.00
2022-12-31T00:38:45.923Z,98407.50
2022-12-31T00:41:13.233Z,98412.25
2022-12-31T00:43:40.189Z,98413.06
2022-12-31T00:46:06.932Z,98412.13
2022-12-31T00:48:34.145Z,98410.91
2022-12-31T00:51:02.161Z,98419.97
2022-12-31T00:53:29.204Z,98418.44
2022-12-31T00:56:06.567Z,98411.19
2022-12-31T00:58:34.368Z,98418.25
2022-12-31T01:01:17.747Z,98410.63
2022-12-31T01:03:44.863Z,98423.72
2022-12-31T01:06:12.041Z,98426.09
2022-12-31T01:08:38.958Z,98436.06
2022-12-31T01:11:28.940Z,98433.25
2022-12-31T01:14:06.806Z,98438.78
2022-12-31T01:16:36.828Z,98432.16
2022-12-31T01:19:06.839Z,98445.84
2022-12-31T01:21:35.196Z,98444.34
2022-12-31T01:24:01.810Z,98440.88
2022-12-31T01:26:29.073Z,98442.00
2022-12-31T01:28:55.877Z,98442.03
2022-12-31T01:31:23.642Z,98442.78
2022-12-31T01:33:51.254Z,98439.31
2022-12-31T01:36:25.577Z,98436.56
2022-12-31T01:38:54.698Z,98429.38
2022-12-31T01:41:27.067Z,98433.66
2022-12-31T01:43:55.630Z,98433.25
2022-12-31T01:46:40.259Z,98436.34
2022-12-31T01:49:15.961Z,98441.81
2022-12-31T01:51:46.797Z,98435.13
2022-12-31T01:54:16.061Z,98441.41
2022-12-31T01:56:43.589Z,98438.19
2022-12-31T01:59:13.333Z,98440.47
2022-12-31T02:01:39.954Z,98437.38
2022-12-31T02:04:13.440Z,98435.78
2022-12-31T02:06:49.135Z,98442.22
2022-12-31T02:09:15.985Z,98436.31
2022-12-31T02:11:42.571Z,98438.72
2022-12-31T02:14:20.735Z,98433.25
2022-12-31T02:16:57.597Z,98441.97
2022-12-31T02:19:48.843Z,98443.16
2022-12-31T02:22:21.141Z,98442.00
2022-12-31T02:25:08.416Z,98452.78
2022-12-31T02:27:58.153Z,98460.28
2022-12-31T02:30:25.570Z,98456.44
2022-12-31T02:33:08.384Z,98473.97
2022-12-31T02:35:34.939Z,98467.53
2022-12-31T02:38:10.299Z,98462.75
2022-12-31T02:40:38.661Z,98462.75
2022-12-31T02:43:05.875Z,98470.47
2022-12-31T02:45:38.117Z,98471.72
2022-12-31T02:48:15.488Z,98470.28
2022-12-31T02:51:05.457Z,98473.53
2022-12-31T02:53:48.459Z,98471.47
2022-12-31T02:56:42.213Z,98480.97
2022-12-31T02:59:38.991Z,98488.09
2022-12-31T03:02:15.309Z,98480.75
2022-12-31T03:04:48.904Z,98483.53
2022-12-31T03:07:22.252Z,98482.41
2022-12-31T03:09:50.177Z,98478.28
2022-12-31T03:12:37.652Z,98478.50
2022-12-31T03:15:06.734Z,98479.03
2022-12-31T03:17:34.564Z,98474.03
2022-12-31T03:20:19.883Z,98479.53
2022-12-31T03:22:46.840Z,98476.19
2022-12-31T03:25:54.481Z,98475.75
2022-12-31T03:28:24.049Z,98478.41
2022-12-31T03:30:53.923Z,98482.78
2022-12-31T03:33:21.736Z,98485.22
2022-12-31T03:35:49.500Z,98480.88
2022-12-31T03:38:17.503Z,98479.38
2022-12-31T03:40:47.448Z,98479.47
2022-12-31T03:43:14.901Z,98482.00
2022-12-31T03:45:41.910Z,98479.38
2022-12-31T03:48:09.815Z,98479.34
2022-12-31T03:50:36.655Z,98482.53
2022-12-31T03:53:03.287Z,98486.06
2022-12-31T03:55:29.832Z,98493.22
2022-12-31T03:57:56.498Z,98484.88
2022-12-31T04:00:23.042Z,98484.91
2022-12-31T04:02:50.856Z,98493.22
2022-12-31T04:05:18.596Z,98494.28
2022-12-31T04:07:45.233Z,98491.84
2022-12-31T04:10:14.616Z,98501.84
2022-12-31T04:12:41.155Z,98499.25
2022-12-31T04:15:15.322Z,98498.50
2022-12-31T04:17:41.906Z,98498.16
2022-12-31T04:20:09.135Z,98500.03
2022-12-31T04:22:35.577Z,98504.00
2022-12-31T04:25:02.169Z,98506.06
2022-12-31T04:27:28.693Z,98506.41
2022-12-31T04:29:55.273Z,98505.53
2022-12-31T04:32:21.865Z,98508.31
2022-12-31T04:34:48.405Z,98507.94
2022-12-31T04:37:14.932Z,98509.81
2022-12-31T04:39:41.522Z,98512.59
2022-12-31T04:42:08.026Z,98511.66
2022-12-31T04:44:35.188Z,98520.34
2022-12-31T04:47:02.138Z,98514.81
2022-12-31T04:49:28.720Z,98514.03
2022-12-31T04:51:55.247Z,98520.09
2022-12-31T04:54:21.793Z,98518.03
2022-12-31T04:56:48.313Z,98534.75
2022-12-31T04:59:14.812Z,98529.13
2022-12-31T05:01:41.718Z,98530.78
2022-12-31T05:04:08.357Z,98526.91
2022-12-31T05:06:34.999Z,98532.44
2022-12-31T05:09:01.780Z,98533.50
2022-12-31T05:11:28.352Z,98547.78
2022-12-31T05:13:55.076Z,98533.94
2022-12-31T05:16:21.818Z,98541.91
2022-12-31T05:18:48.418Z,98545.19
2022-12-31T05:21:20.212Z,98532.56
2022-12-31T05:23:47.166Z,98545.25
2022-12-31T05:26:14.109Z,98542.03
2022-12-31T05:28:41.102Z,98547.88
2022-12-31T05:31:08.042Z,98552.78
2022-12-31T05:33:34.679Z,98557.53
2022-12-31T05:36:01.230Z,98554.28
2022-12-31T05:38:27.776Z,98562.47
2022-12-31T05:41:02.400Z,98557.00
2022-12-31T05:43:29.035Z,98561.03
2022-12-31T05:45:55.747Z,98553.75
2022-12-31T05:48:22.366Z,98561.22
2022-12-31T05:50:50.030Z,98567.03
2022-12-31T05:53:16.598Z,98571.63
2022-12-31T05:55:44.733Z,98572.31
2022-12-31T05:58:11.228Z,98586.22
2022-12-31T06:00:37.752Z,98585.03
2022-12-31T06:03:04.514Z,98584.31
2022-12-31T06:05:31.131Z,98585.97
2022-12-31T06:07:57.707Z,98581.53
2022-12-31T06:10:24.304Z,98590.00
2022-12-31T06:12:50.845Z,98595.41
2022-12-31T06:15:17.439Z,98587.81
2022-12-31T06:17:44.027Z,98596.13
2022-12-31T06:20:13.107Z,98602.41
2022-12-31T06:22:40.053Z,98605.47
2022-12-31T06:25:07.119Z,98612.75
2022-12-31T06:27:33.648Z,98610.41
2022-12-31T06:30:00.162Z,98615.69
2022-12-31T06:32:26.662Z,98613.97
2022-12-31T06:34:53.144Z,98610.00
2022-12-31T06:37:19.699Z,98613.06
2022-12-31T06:39:46.243Z,98620.91
2022-12-31T06:42:14.215Z,98624.72
2022-12-31T06:44:41.864Z,98620.84
2022-12-31T06:47:08.389Z,98618.84
2022-12-31T06:49:34.912Z,98617.63
2022-12-31T06:52:01.451Z,98623.59
2022-12-31T06:54:28.000Z,98630.72
2022-12-31T06:56:54.837Z,98632.03
2022-12-31T06:59:27.940Z,98634.06
2022-12-31T07:02:00.549Z,98631.97
2022-12-31T07:05:04.714Z,98640.03
2022-12-31T07:07:48.279Z,98641.19
2022-12-31T07:10:35.973Z,98632.53
2022-12-31T07:13:20.723Z,98647.34
2022-12-31T07:16:25.621Z,98654.97
2022-12-31T07:19:06.737Z,98667.78
2022-12-31T07:21:39.380Z,98658.13
2022-12-31T07:24:10.404Z,98661.31
2022-12-31T07:27:14.865Z,98667.84
2022-12-31T07:30:01.746Z,98660.81
2022-12-31T07:32:41.656Z,98666.53
2022-12-31T07:35:40.168Z,98665.28
2022-12-31T07:38:12.538Z,98669.59
2022-12-31T07:40:57.514Z,98675.50
2022-12-31T07:43:48.525Z,98673.22
2022-12-31T07:46:40.486Z,98685.38
2022-12-31T07:49:12.425Z,98677.09
2022-12-31T07:51:40.239Z,98687.84
2022-12-31T07:54:11.943Z,98682.94
2022-12-31T07:56:41.061Z,98683.06
2022-12-31T07:59:32.711Z,98682.28
2022-12-31T08:02:18.144Z,98676.59
2022-12-31T08:05:10.783Z,98684.94
2022-12-31T08:07:49.326Z,98679.38
2022-12-31T08:10:38.598Z,98687.66
2022-12-31T08:13:10.020Z,98681.75
2022-12-31T08:15:38.613Z,98671.47
2022-12-31T08:18:06.392Z,98676.41
2022-12-31T08:20:36.440Z,98671.78
2022-12-31T08:23:20.316Z,98670.63
2022-12-31T08:25:52.938Z,98667.34
2022-12-31T08:28:43.849Z,98672.53
2022-12-31T08:31:18.299Z,98674.56
2022-12-31T08:34:18.473Z,98678.25
2022-12-31T08:36:56.423Z,98668.47
2022-12-31T08:39:53.241Z,98667.69
2022-12-31T08:42:30.084Z,98674.97
2022-12-31T08:45:12.792Z,98672.72
2022-12-31T08:47:48.467Z,98667.13
2022-12-31T08:50:17.328Z,98664.78
2022-12-31T08:52:44.887Z,98666.06
2022-12-31T08:55:16.509Z,98664.91
2022-12-31T08:58:15.421Z,98659.50
2022-12-31T09:00:42.580Z,98655.28
2022-12-31T09:03:21.920Z,98657.56
2022-12-31T09:06:14.939Z,98634.69
2022-12-31T09:08:55.795Z,98619.50
2022-12-31T09:11:30.032Z,98598.38
2022-12-31T09:14:21.253Z,98587.94
2022-12-31T09:17:09.345Z,98591.97
2022-12-31T09:19:36.099Z,98596.97
2022-12-31T09:22:03.040Z,98598.47
2022-12-31T09:24:29.781Z,98596.47
2022-12-31T09:27:04.653Z,98595.50
2022-12-31T09:29:49.549Z,98604.16
2022-12-31T09:32:51.909Z,98608.78
2022-12-31T09:35:46.346Z,98616.88
2022-12-31T09:38:27.795Z,98620.97
2022-12-31T09:41:34.302Z,98615.28
2022-12-31T09:44:38.824Z,98609.09
2022-12-31T09:47:23.670Z,98602.25
2022-12-31T09:49:53.099Z,98592.44
2022-12-31T09:52:41.022Z,98572.69
2022-12-31T09:55:07.553Z,98561.00
2022-12-31T09:57:45.358Z,98565.00
2022-12-31T10:00:28.168Z,98558.06
2022-12-31T10:03:16.136Z,98555.06
2022-12-31T10:06:20.152Z,98550.00
2022-12-31T10:09:08.526Z,98537.97
2022-12-31T10:11:59.476Z,98536.03
2022-12-31T10:14:59.359Z,98533.28
2022-12-31T10:17:52.319Z,98529.13
2022-12-31T10:20:45.689Z,98516.34
2022-12-31T10:23:15.395Z,98519.28
2022-12-31T10:26:19.752Z,98516.78
2022-12-31T10:28:46.251Z,98515.06
2022-12-31T10:31:12.788Z,98513.69
2022-12-31T10:33:42.852Z,98503.91
2022-12-31T10:36:16.757Z,98514.34
2022-12-31T10:39:04.990Z,98506.75
2022-12-31T10:42:03.246Z,98502.25
2022-12-31T10:44:38.994Z,98492.00
2022-12-31T10:47:33.397Z,98483.00
2022-12-31T10:50:34.112Z,98481.00
2022-12-31T10:53:37.473Z,98471.38
2022-12-31T10:56:41.630Z,98467.81
2022-12-31T10:59:11.137Z,98476.84
2022-12-31T11:01:50.765Z,98472.81
2022-12-31T11:04:29.806Z,98473.03
2022-12-31T11:07:29.550Z,98464.09
2022-12-31T11:10:24.148Z,98454.75
2022-12-31T11:13:08.936Z,98445.03
2022-12-31T11:15:50.272Z,98446.91
2022-12-31T11:18:45.184Z,98449.38
2022-12-31T11:21:48.969Z,98437.44
2022-12-31T11:24:38.074Z,98431.81
2022-12-31T11:27:44.830Z,98434.97
2022-12-31T11:30:27.473Z,98429.50
2022-12-31T11:33:12.341Z,98427.81
2022-12-31T11:35:41.911Z,98426.31
2022-12-31T11:38:50.878Z,98424.28
2022-12-31T11:41:23.622Z,98418.94
2022-12-31T11:44:20.693Z,98426.13
2022-12-31T11:47:03.175Z,98417.03
2022-12-31T11:50:03.113Z,98409.94
2022-12-31T11:52:48.662Z,98416.25
2022-12-31T11:55:36.992Z,98409.56
2022-12-31T11:58:12.951Z,98399.09
2022-12-31T12:00:43.379Z,98394.00
2022-12-31T12:03:11.179Z,98398.53
2022-12-31T12:05:39.712Z,98398.53
2022-12-31T12:08:06.513Z,98384.97
2022-12-31T12:10:38.206Z,98392.59
2022-12-31T12:13:16.773Z,98397.25
2022-12-31T12:15:50.862Z,98391.59
2022-12-31T12:18:36.989Z,98394.56
2022-12-31T12:21:09.678Z,98386.06
2022-12-31T12:23:36.967Z,98393.53
2022-12-31T12:26:03.787Z,98388.00
2022-12-31T12:28:44.283Z,98391.84
2022-12-31T12:31:19.903Z,98391.31
2022-12-31T12:33:47.656Z,98386.91
2022-12-31T12:36:16.763Z,98397.53
2022-12-31T12:38:43.724Z,98398.09
2022-12-31T12:41:18.797Z,98393.78
2022-12-31T12:43:45.422Z,98396.50
2022-12-31T12:46:48.408Z,98402.47
2022-12-31T12:49:27.453Z,98403.41
2022-12-31T12:52:09.680Z,98407.56
2022-12-31T12:54:39.108Z,98410.19
2022-12-31T12:57:20.897Z,98408.13
2022-12-31T13:00:07.728Z,98406.69
2022-12-31T13:02:48.982Z,98404.75
2022-12-31T13:05:32.024Z,98401.72
2022-12-31T13:08:04.361Z,98402.13
2022-12-31T13:11:16.042Z,98407.91
2022-12-31T13:13:45.429Z,98411.41
2022-12-31T13:16:23.649Z,98416.59
2022-12-31T13:19:02.799Z,98417.50
2022-12-31T13:21:43.815Z,98417.16
2022-12-31T13:24:28.934Z,98416.47
2022-12-31T13:27:10.386Z,98419.41
2022-12-31T13:29:39.654Z,98413.41
2022-12-31T13:32:10.999Z,98408.41
2022-12-31T13:34:41.664Z,98422.09
2022-12-31T13:37:32.179Z,98428.72
2022-12-31T13:40:07.611Z,98422.97
2022-12-31T13:42:50.842Z,98428.59
2022-12-31T13:45:25.313Z,98434.34
2022-12-31T13:47:58.589Z,98430.94
2022-12-31T13:50:42.487Z,98439.63
2022-12-31T13:53:26.805Z,98450.00
2022-12-31T13:56:03.595Z,98451.84
2022-12-31T13:58:38.018Z,98452.31
2022-12-31T14:01:30.689Z,98450.97
2022-12-31T14:04:13.998Z,98456.00
2022-12-31T14:06:55.015Z,98458.16
2022-12-31T14:09:30.681Z,98463.41
2022-12-31T14:12:28.215Z,98460.13
2022-12-31T14:14:59.775Z,98460.88
2022-12-31T14:17:41.384Z,98465.84
2022-12-31T14:20:22.913Z,98464.50
2022-12-31T14:23:08.415Z,98454.69
2022-12-31T14:25:58.813Z,98460.81
2022-12-31T14:28:46.812Z,98453.97
2022-12-31T14:31:46.029Z,98455.81
2022-12-31T14:34:25.713Z,98451.47
2022-12-31T14:36:58.071Z,98447.66
2022-12-31T14:39:49.315Z,98455.59
2022-12-31T14:42:28.123Z,98446.13
2022-12-31T14:45:17.585Z,98443.78
2022-12-31T14:47:54.510Z,98445.84
2022-12-31T14:50:25.500Z,98451.06
2022-12-31T14:53:14.853Z,98451.50
2022-12-31T14:55:41.473Z,98449.25
2022-12-31T14:58:31.898Z,98449.59
2022-12-31T15:01:22.374Z,98460.50
2022-12-31T15:03:50.548Z,98450.41
2022-12-31T15:06:22.954Z,98449.00
2022-12-31T15:08:49.436Z,98448.34
2022-12-31T15:11:37.296Z,98448.41
2022-12-31T15:14:25.474Z,98446.91
2022-12-31T15:17:07.358Z,98453.66
2022-12-31T15:19:58.592Z,98461.28
2022-12-31T15:22:43.637Z,98463.75
2022-12-31T15:25:41.526Z,98466.31
2022-12-31T15:28:41.600Z,98459.91
2022-12-31T15:31:17.457Z,98477.50
2022-12-31T15:34:06.255Z,98470.34
2022-12-31T15:36:41.128Z,98467.25
2022-12-31T15:39:10.635Z,98478.53
2022-12-31T15:42:10.296Z,98484.63
2022-12-31T15:44:55.249Z,98486.66
2022-12-31T15:47:41.564Z,98498.63
2022-12-31T15:50:16.103Z,98489.13
2022-12-31T15:52:47.932Z,98503.53
2022-12-31T15:55:27.261Z,98510.72
2022-12-31T15:57:58.287Z,98495.59
2022-12-31T16:00:24.945Z,98509.16
2022-12-31T16:02:54.538Z,98496.03
2022-12-31T16:05:24.793Z,98496.44
2022-12-31T16:07:56.465Z,98508.03
2022-12-31T16:10:44.200Z,98502.88
2022-12-31T16:13:20.682Z,98513.25
2022-12-31T16:15:52.006Z,98514.03
2022-12-31T16:18:22.780Z,98524.03
2022-12-31T16:20:51.840Z,98526.03
2022-12-31T16:23:23.883Z,98535.59
2022-12-31T16:25:53.914Z,98534.44
2022-12-31T16:28:24.548Z,98538.03
2022-12-31T16:31:14.830Z,98542.81
2022-12-31T16:33:41.530Z,98549.16
2022-12-31T16:36:19.493Z,98550.75
2022-12-31T16:38:46.114Z,98547.94
2022-12-31T16:41:22.316Z,98559.50
2022-12-31T16:43:50.392Z,98555.44
2022-12-31T16:46:27.719Z,98553.84
2022-12-31T16:48:59.909Z,98553.47
2022-12-31T16:51:30.579Z,98555.47
2022-12-31T16:53:58.601Z,98564.25
2022-12-31T16:56:37.129Z,98566.28
2022-12-31T16:59:07.878Z,98569.47
2022-12-31T17:01:37.039Z,98576.25
2022-12-31T17:04:09.660Z,98576.22
2022-12-31T17:06:36.486Z,98570.59
2022-12-31T17:09:20.975Z,98584.00
2022-12-31T17:11:50.573Z,98574.84
2022-12-31T17:14:28.634Z,98578.84
2022-12-31T17:17:03.865Z,98584.81
2022-12-31T17:19:46.285Z,98582.44
2022-12-31T17:22:36.221Z,98587.25
2022-12-31T17:25:08.243Z,98590.41
2022-12-31T17:27:36.332Z,98589.47
2022-12-31T17:30:39.835Z,98598.22
2022-12-31T17:33:12.490Z,98605.34
2022-12-31T17:35:43.475Z,98594.16
2022-12-31T17:38:22.321Z,98601.28
2022-12-31T17:40:52.857Z,98615.47
2022-12-31T17:43:21.881Z,98613.44
2022-12-31T17:45:51.571Z,98620.97
2022-12-31T17:48:19.949Z,98629.72
2022-12-31T17:50:51.581Z,98627.34
2022-12-31T17:53:19.073Z,98631.38
2022-12-31T17:55:48.549Z,98627.50
2022-12-31T17:58:30.027Z,98640.22
2022-12-31T18:00:58.211Z,98643.41
2022-12-31T18:03:25.052Z,98644.13
2022-12-31T18:05:51.996Z,98653.28
2022-12-31T18:08:18.623Z,98648.22
2022-12-31T18:10:45.358Z,98655.41
2022-12-31T18:13:24.522Z,98657.00
2022-12-31T18:15:52.602Z,98653.88
2022-12-31T18:18:25.925Z,98657.47
2022-12-31T18:20:58.511Z,98664.22
2022-12-31T18:23:31.099Z,98649.91
2022-12-31T18:25:57.660Z,98660.16
2022-12-31T18:28:24.222Z,98661.28
2022-12-31T18:30:51.353Z,98656.72
2022-12-31T18:33:22.311Z,98656.56
2022-12-31T18:36:10.064Z,98640.56
2022-12-31T18:38:37.493Z,98649.66
2022-12-31T18:41:04.381Z,98661.25
2022-12-31T18:43:31.104Z,98643.88
2022-12-31T18:45:58.075Z,98651.78
2022-12-31T18:48:24.714Z,98652.63
2022-12-31T18:50:51.308Z,98662.13
2022-12-31T18:53:23.107Z,98664.97
2022-12-31T18:55:52.893Z,98664.25
2022-12-31T18:58:19.797Z,98665.38
2022-12-31T19:00:48.133Z,98673.25
2022-12-31T19:03:17.268Z,98676.38
2022-12-31T19:05:45.621Z,98663.53
2022-12-31T19:08:12.202Z,98671.78
2022-12-31T19:10:38.781Z,98669.59
2022-12-31T19:13:05.387Z,98666.31
2022-12-31T19:15:34.840Z,98679.81
2022-12-31T19:18:02.482Z,98681.06
2022-12-31T19:20:30.489Z,98681.50
2022-12-31T19:22:59.042Z,98680.63
2022-12-31T19:25:28.477Z,98683.78
2022-12-31T19:27:55.163Z,98682.84
2022-12-31T19:30:27.771Z,98687.88
2022-12-31T19:32:55.022Z,98694.22
2022-12-31T19:35:23.272Z,98691.38
2022-12-31T19:37:51.828Z,98695.19
2022-12-31T19:40:30.242Z,98691.22
2022-12-31T19:42:57.503Z,98693.78
2022-12-31T19:45:24.934Z,98697.06
2022-12-31T19:47:52.604Z,98697.00
2022-12-31T19:50:22.059Z,98694.63
2022-12-31T19:52:49.891Z,98701.03
2022-12-31T19:55:22.103Z,98695.06
2022-12-31T19:57:49.093Z,98701.72
2022-12-31T20:00:17.473Z,98700.03
2022-12-31T20:02:46.411Z,98703.78
2022-12-31T20:05:15.412Z,98703.50
2022-12-31T20:07:42.069Z,98705.91
2022-12-31T20:10:08.919Z,98712.31
2022-12-31T20:12:39.172Z,98716.25
2022-12-31T20:15:09.388Z,98714.72
2022-12-31T20:17:36.556Z,98720.31
2022-12-31T20:20:03.761Z,98713.16
2022-12-31T20:22:30.321Z,98717.13
2022-12-31T20:24:58.301Z,98716.91
2022-12-31T20:27:24.835Z,98712.84
2022-12-31T20:29:51.398Z,98699.25
2022-12-31T20:32:17.963Z,98696.78
2022-12-31T20:34:44.556Z,98707.84
2022-12-31T20:37:11.117Z,98709.84
2022-12-31T20:39:38.047Z,98704.31
2022-12-31T20:42:04.761Z,98709.81
2022-12-31T20:44:31.326Z,98720.53
2022-12-31T20:46:57.848Z,98724.16
2022-12-31T20:49:44.883Z,98722.91
2022-12-31T20:52:10.885Z,98729.22
2022-12-31T20:54:37.547Z,98723.50
2022-12-31T20:57:04.276Z,98719.31
2022-12-31T20:59:30.835Z,98743.16
2022-12-31T21:02:20.940Z,98743.47
2022-12-31T21:04:45.434Z,98746.31
2022-12-31T21:07:12.191Z,98741.31
2022-12-31T21:09:38.776Z,98741.75
2022-12-31T21:12:24.451Z,98737.53
2022-12-31T21:14:50.969Z,98743.78
2022-12-31T21:17:17.520Z,98746.00
2022-12-31T21:19:44.163Z,98745.06
2022-12-31T21:22:10.763Z,98746.13
2022-12-31T21:24:39.059Z,98735.53
2022-12-31T21:27:06.183Z,98736.69
2022-12-31T21:29:34.897Z,98738.59
2022-12-31T21:32:02.297Z,98723.06
2022-12-31T21:34:29.016Z,98734.09
2022-12-31T21:36:55.703Z,98738.34
2022-12-31T21:39:22.240Z,98728.50
2022-12-31T21:41:51.426Z,98731.41
2022-12-31T21:44:23.649Z,98731.44
2022-12-31T21:47:33.123Z,98730.53
2022-12-31T21:49:41.749Z,98740.88
2022-12-31T21:52:26.748Z,98741.69
2022-12-31T21:55:19.770Z,98740.78
2022-12-31T21:58:24.311Z,98734.84
2022-12-31T22:00:53.559Z,98738.50
2022-12-31T22:03:27.823Z,98737.06
2022-12-31T22:06:09.011Z,98729.66
2022-12-31T22:08:36.358Z,98733.28
2022-12-31T22:11:02.755Z,98746.28
2022-12-31T22:13:29.317Z,98739.00
2022-12-31T22:16:04.336Z,98739.72
2022-12-31T22:18:34.352Z,98738.84
2022-12-31T22:21:09.581Z,98746.78
2022-12-31T22:23:41.522Z,98766.28
2022-12-31T22:26:10.769Z,98743.47
2022-12-31T22:28:40.313Z,98754.75
2022-12-31T22:31:09.920Z,98763.94
2022-12-31T22:33:36.510Z,98764.88
2022-12-31T22:36:06.638Z,98765.75
2022-12-31T22:38:34.341Z,98764.66
2022-12-31T22:41:08.365Z,98756.28
2022-12-31T22:43:37.592Z,98769.66
2022-12-31T22:46:25.149Z,98741.94
2022-12-31T22:48:53.488Z,98755.81
2022-12-31T22:51:20.661Z,98755.81
2022-12-31T22:53:47.214Z,98751.78
2022-12-31T22:56:16.493Z,98759.00
2022-12-31T22:58:43.595Z,98757.75
2022-12-31T23:01:22.441Z,98750.31
2022-12-31T23:03:50.660Z,98755.28
2022-12-31T23:06:17.665Z,98754.34
2022-12-31T23:09:07.056Z,98757.53
2022-12-31T23:11:35.977Z,98762.22
2022-12-31T23:14:22.152Z,98764.66
2022-12-31T23:17:29.160Z,98761.03
2022-12-31T23:20:12.469Z,98763.22
2022-12-31T23:22:57.782Z,98761.47
2022-12-31T23:25:24.326Z,98762.06
2022-12-31T23:27:50.879Z,98760.00
2022-12-31T23:30:17.528Z,98763.50
2022-12-31T23:32:44.055Z,98762.47
2022-12-31T23:35:10.735Z,98767.34
2022-12-31T23:37:37.265Z,98767.72
2022-12-31T23:40:04.316Z,98773.97
2022-12-31T23:42:30.870Z,98772.44
2022-12-31T23:44:57.452Z,98774.34
2022-12-31T23:47:24.031Z,98778.69
2022-12-31T23:49:50.576Z,98782.00
2022-12-31T23:52:17.107Z,98775.28
2022-12-31T23:54:43.696Z,98788.34
2022-12-31T23:57:10.689Z,98776.91
2022-12-31T23:59:37.510Z,98769.31
